Time;durP1;ratioP1;P1;durP2;ratioP2;P2;SDS_P1;SDS_P2;PMS_P1;PMS_P2;Temp;Humidity;BMP_temperature;BMP_pressure;BME280_temperature;BME280_humidity;BME280_pressure;Samples;Min_cycle;Max_cycle;Signal;HPM_P1;HPM_P2
2022/10/07 00:00:56;;;;;;;;;;;;;;;9.92;78.21;102706.81;5023409;28;19932;-58
2022/10/07 00:03:22;;;;;;;;;;;;;;;9.92;78.55;102698.88;5024865;28;20569;-58
2022/10/07 00:05:58;;;;;;;;;;;;;;;9.92;78.59;102702.34;5023805;28;19924;-57
2022/10/07 00:08:23;;;;;;;;;;;;;;;9.90;79.03;102698.13;5026025;28;19917;-57
2022/10/07 00:10:48;;;;;;;;;;;;;;;9.88;78.83;102692.97;5023438;28;19917;-57
2022/10/07 00:13:13;;;;;;;;;;;;;;;9.87;79.41;102688.63;5023903;28;19970;-57
2022/10/07 00:15:38;;;;;;;;;;;;;;;9.88;79.10;102690.31;5023529;28;19921;-57
2022/10/07 00:18:04;;;;;;;;;;;;;;;9.89;79.30;102685.84;5025462;28;19974;-57
2022/10/07 00:20:29;;;;;;;;;;;;;;;9.87;79.39;102682.47;5023131;28;19964;-57
2022/10/07 00:22:54;;;;;;;;;;;;;;;9.84;79.27;102682.72;5023029;28;19925;-57
2022/10/07 00:25:20;;;;;;;;;;;;;;;9.83;79.33;102680.97;5024714;28;19982;-57
2022/10/07 00:27:45;;;;;;;;;;;;;;;9.82;79.77;102672.19;5026073;28;20008;-57
2022/10/07 00:30:11;;;;;;;;;;;;;;;9.79;79.83;102669.78;5022700;28;19917;-55
2022/10/07 00:32:36;;;;;;;;;;;;;;;9.80;79.56;102668.81;5024934;28;19921;-56
2022/10/07 00:35:01;;;;;;;;;;;;;;;9.80;79.89;102666.16;5024627;28;19922;-57
2022/10/07 00:37:26;;;;;;;;;;;;;;;9.80;79.73;102671.47;5023753;28;20011;-57
2022/10/07 00:39:51;;;;;;;;;;;;;;;9.81;80.18;102661.69;5021613;28;19971;-57
2022/10/07 00:42:17;;;;;;;;;;;;;;;9.81;80.06;102656.38;5020288;28;20004;-56
2022/10/07 00:44:42;;;;;;;;;;;;;;;9.83;79.88;102657.09;5026320;28;19936;-56
2022/10/07 00:47:12;;;;;;;;;;;;;;;9.84;79.98;102664.97;5028878;28;19921;-55
2022/10/07 00:49:41;;;;;;;;;;;;;;;9.85;79.49;102658.69;5026927;28;20013;-57
2022/10/07 00:52:07;;;;;;;;;;;;;;;9.88;79.40;102657.63;5025640;28;20415;-57
2022/10/07 00:54:32;;;;;;;;;;;;;;;9.88;79.33;102662.91;5023843;28;19925;-57
2022/10/07 00:56:58;;;;;;;;;;;;;;;9.84;79.67;102654.38;5026507;28;19922;-55
2022/10/07 00:59:23;;;;;;;;;;;;;;;9.81;79.66;102654.56;5027814;28;19988;-57
2022/10/07 01:01:49;;;;;;;;;;;;;;;9.77;79.88;102644.34;5024220;28;19925;-57
2022/10/07 01:04:14;;;;;;;;;;;;;;;9.74;80.12;102648.06;5026122;28;19924;-55
2022/10/07 01:06:40;;;;;;;;;;;;;;;9.73;80.45;102643.72;5024796;28;19932;-56
2022/10/07 01:09:06;;;;;;;;;;;;;;;9.72;80.49;102641.19;5024567;28;20589;-57
2022/10/07 01:11:44;;;;;;;;;;;;;;;9.69;80.38;102633.50;5029430;28;20396;-57
2022/10/07 01:14:14;;;;;;;;;;;;;;;9.64;80.77;102631.19;5028331;28;20621;-58
2022/10/07 01:16:53;;;;;;;;;;;;;;;9.61;80.97;102629.63;5021257;28;19925;-57
2022/10/07 01:19:27;;;;;;;;;;;;;;;9.60;80.92;102632.41;5023483;28;19964;-58
2022/10/07 01:22:01;;;;;;;;;;;;;;;9.57;81.22;102628.19;5030842;28;20024;-57
2022/10/07 01:24:32;;;;;;;;;;;;;;;9.54;81.38;102624.91;5029511;28;19949;-57
2022/10/07 01:27:04;;;;;;;;;;;;;;;9.54;81.61;102617.81;5030609;28;19925;-57
2022/10/07 01:29:35;;;;;;;;;;;;;;;9.55;81.88;102616.03;5025517;28;19932;-57
2022/10/07 01:32:06;;;;;;;;;;;;;;;9.50;81.59;102602.25;5024548;28;19917;-57
2022/10/07 01:34:33;;;;;;;;;;;;;;;9.54;82.03;102601.91;5027804;28;19983;-57
2022/10/07 01:37:00;;;;;;;;;;;;;;;9.56;81.62;102597.31;5031204;28;19924;-56
2022/10/07 01:39:28;;;;;;;;;;;;;;;9.58;81.50;102598.06;5029808;28;19956;-57
2022/10/07 01:41:54;;;;;;;;;;;;;;;9.60;81.61;102585.50;5026705;28;19921;-57
2022/10/07 01:44:20;;;;;;;;;;;;;;;9.59;81.38;102589.13;5026887;28;20332;-58
2022/10/07 01:46:46;;;;;;;;;;;;;;;9.60;81.67;102588.16;5029552;28;20484;-56
2022/10/07 01:49:12;;;;;;;;;;;;;;;9.61;81.48;102586.34;5026254;28;19924;-58
2022/10/07 01:51:38;;;;;;;;;;;;;;;9.59;81.86;102577.69;5029886;28;19921;-56
2022/10/07 01:54:07;;;;;;;;;;;;;;;9.58;81.73;102582.13;5029264;28;19929;-57
2022/10/07 01:56:51;;;;;;;;;;;;;;;9.57;81.78;102574.31;5025989;28;19945;-56
2022/10/07 01:59:34;;;;;;;;;;;;;;;9.55;81.78;102570.94;5025624;28;19921;-56
2022/10/07 02:02:26;;;;;;;;;;;;;;;9.53;82.20;102568.38;5027422;28;19975;-57
2022/10/07 02:05:01;;;;;;;;;;;;;;;9.52;82.11;102569.34;5029446;28;19917;-57
2022/10/07 02:07:44;;;;;;;;;;;;;;;9.50;82.52;102560.66;5023272;28;19928;-56
2022/10/07 02:10:16;;;;;;;;;;;;;;;9.49;82.38;102563.44;5021484;28;20291;-57
2022/10/07 02:12:45;;;;;;;;;;;;;;;9.48;82.47;102556.44;5026885;28;20541;-57
2022/10/07 02:15:36;;;;;;;;;;;;;;;9.48;82.56;102545.84;5026100;28;19924;-56
2022/10/07 02:18:05;;;;;;;;;;;;;;;9.47;82.49;102552.94;5021686;28;20524;-57
2022/10/07 02:20:32;;;;;;;;;;;;;;;9.46;83.08;102545.97;5025038;28;20295;-56
2022/10/07 02:22:59;;;;;;;;;;;;;;;9.46;82.52;102539.81;5026638;28;20291;-58
2022/10/07 02:25:26;;;;;;;;;;;;;;;9.44;82.81;102542.59;5028077;28;19924;-55
2022/10/07 02:27:52;;;;;;;;;;;;;;;9.44;82.86;102545.25;5029309;28;19917;-56
2022/10/07 02:30:19;;;;;;;;;;;;;;;9.43;83.04;102529.44;5024484;28;19924;-55
2022/10/07 02:32:46;;;;;;;;;;;;;;;9.42;83.19;102528.59;5024944;28;19924;-55
2022/10/07 02:35:22;;;;;;;;;;;;;;;9.43;82.92;102526.81;5025665;28;19928;-57
2022/10/07 02:37:48;;;;;;;;;;;;;;;9.40;83.14;102527.03;5026205;28;19921;-56
2022/10/07 02:40:13;;;;;;;;;;;;;;;9.38;82.88;102515.72;5026003;28;19921;-57
2022/10/07 02:42:54;;;;;;;;;;;;;;;9.36;83.50;102517.66;5026579;28;20296;-56
2022/10/07 02:45:51;;;;;;;;;;;;;;;9.35;83.08;102516.81;5025180;28;19954;-55
2022/10/07 02:48:36;;;;;;;;;;;;;;;9.32;83.48;102511.75;4979021;28;19925;-56
2022/10/07 02:51:04;;;;;;;;;;;;;;;9.32;83.19;102506.44;5025102;28;20008;-55
2022/10/07 02:53:31;;;;;;;;;;;;;;;9.26;83.15;102496.34;5027362;28;19917;-57
2022/10/07 02:55:57;;;;;;;;;;;;;;;9.31;83.20;102510.06;5028647;28;19929;-55
2022/10/07 02:58:25;;;;;;;;;;;;;;;9.31;83.18;102502.97;5023901;28;19955;-56
2022/10/07 03:00:52;;;;;;;;;;;;;;;9.31;83.34;102502.97;5021854;28;19955;-57
2022/10/07 03:03:17;;;;;;;;;;;;;;;9.30;83.43;102503.94;5029215;28;19921;-57
2022/10/07 03:05:42;;;;;;;;;;;;;;;9.30;83.04;102500.44;5026368;28;19971;-57
2022/10/07 03:08:09;;;;;;;;;;;;;;;9.30;82.78;102495.97;5024047;28;19921;-57
2022/10/07 03:10:34;;;;;;;;;;;;;;;9.27;83.20;102485.63;5019437;28;19923;-57
2022/10/07 03:13:03;;;;;;;;;;;;;;;9.27;82.97;102496.22;5024156;28;19925;-56
2022/10/07 03:15:29;;;;;;;;;;;;;;;9.26;82.99;102491.03;5025809;28;19967;-56
2022/10/07 03:17:54;;;;;;;;;;;;;;;9.27;82.99;102492.72;5027472;28;19921;-57
2022/10/07 03:20:19;;;;;;;;;;;;;;;9.26;82.69;102489.22;5028177;28;19925;-58
2022/10/07 03:22:44;;;;;;;;;;;;;;;9.27;82.59;102487.41;5024717;28;19917;-57
2022/10/07 03:25:11;;;;;;;;;;;;;;;9.28;82.45;102483.81;5023405;28;20367;-56
2022/10/07 03:27:37;;;;;;;;;;;;;;;9.27;82.17;102477.66;5025965;28;19956;-55
2022/10/07 03:30:02;;;;;;;;;;;;;;;9.29;82.44;102473.06;5026652;28;19971;-57
2022/10/07 03:32:27;;;;;;;;;;;;;;;9.31;82.10;102470.31;5026270;28;19921;-57
2022/10/07 03:34:53;;;;;;;;;;;;;;;9.31;81.91;102476.44;5028978;28;20319;-55
2022/10/07 03:37:19;;;;;;;;;;;;;;;9.27;81.88;102469.69;5024410;28;19971;-57
2022/10/07 03:39:45;;;;;;;;;;;;;;;9.25;82.11;102470.75;5023862;28;20361;-56
2022/10/07 03:42:10;;;;;;;;;;;;;;;9.22;81.95;102461.25;5024200;28;20376;-56
2022/10/07 03:44:35;;;;;;;;;;;;;;;9.22;82.00;102465.72;5026752;28;19988;-57
2022/10/07 03:47:02;;;;;;;;;;;;;;;9.17;82.60;102463.44;5024756;28;19932;-57
2022/10/07 03:49:27;;;;;;;;;;;;;;;9.13;82.55;102459.34;5020545;28;19925;-56
2022/10/07 03:51:52;;;;;;;;;;;;;;;9.10;82.57;102458.75;5024079;28;19971;-57
2022/10/07 03:54:18;;;;;;;;;;;;;;;9.06;82.77;102452.00;5026054;28;19921;-57
2022/10/07 03:56:43;;;;;;;;;;;;;;;9.04;82.89;102453.94;5026357;28;19923;-57
2022/10/07 03:59:08;;;;;;;;;;;;;;;9.02;83.09;102453.22;5024338;28;19916;-56
2022/10/07 04:01:34;;;;;;;;;;;;;;;8.99;82.84;102449.84;5024878;28;19920;-56
2022/10/07 04:03:59;;;;;;;;;;;;;;;8.96;83.19;102444.78;5025479;28;19925;-56
2022/10/07 04:06:25;;;;;;;;;;;;;;;8.95;83.70;102445.72;5023017;28;19921;-56
2022/10/07 04:08:51;;;;;;;;;;;;;;;8.92;83.75;102443.31;5025536;28;19917;-57
2022/10/07 04:11:17;;;;;;;;;;;;;;;8.91;84.04;102444.28;5027535;28;20376;-57
2022/10/07 04:13:42;;;;;;;;;;;;;;;8.90;84.32;102439.09;5028054;28;20440;-57
2022/10/07 04:16:08;;;;;;;;;;;;;;;8.88;84.13;102435.72;5020487;28;19972;-56
2022/10/07 04:18:33;;;;;;;;;;;;;;;8.87;84.56;102439.34;5023813;28;20024;-57
2022/10/07 04:20:59;;;;;;;;;;;;;;;8.88;84.29;102438.38;5021788;28;20000;-57
2022/10/07 04:23:25;;;;;;;;;;;;;;;8.89;84.44;102440.06;5023450;28;20368;-57
2022/10/07 04:25:50;;;;;;;;;;;;;;;8.87;84.58;102432.25;5022229;28;19917;-55
2022/10/07 04:28:17;;;;;;;;;;;;;;;8.88;84.59;102433.94;5023752;28;20039;-55
2022/10/07 04:30:43;;;;;;;;;;;;;;;8.87;84.48;102434.88;5021839;28;20379;-56
2022/10/07 04:33:09;;;;;;;;;;;;;;;8.85;84.41;102435.97;5028081;28;19965;-55
2022/10/07 04:35:37;;;;;;;;;;;;;;;8.85;84.58;102434.16;5033473;28;19927;-53
2022/10/07 04:38:03;;;;;;;;;;;;;;;8.84;84.63;102434.28;5033785;28;19917;-55
2022/10/07 04:40:29;;;;;;;;;;;;;;;8.85;84.72;102438.63;5032745;28;20007;-55
2022/10/07 04:45:39;;;;;;;;;;;;;;;8.84;84.70;102431.66;5031615;28;20006;-56
2022/10/07 04:48:05;;;;;;;;;;;;;;;8.82;84.55;102436.22;5031576;28;19952;-56
2022/10/07 04:50:31;;;;;;;;;;;;;;;8.83;84.44;102433.44;5028189;28;19917;-57
2022/10/07 04:52:56;;;;;;;;;;;;;;;8.83;84.10;102437.91;5034854;28;20368;-57
2022/10/07 04:55:21;;;;;;;;;;;;;;;8.81;84.16;102435.38;5030622;28;19976;-58
2022/10/07 04:57:46;;;;;;;;;;;;;;;8.80;84.24;102436.34;5032082;28;19960;-57
2022/10/07 05:00:12;;;;;;;;;;;;;;;8.79;84.46;102432.00;5024115;28;19929;-58
2022/10/07 05:02:37;;;;;;;;;;;;;;;8.77;84.46;102439.22;5027931;28;19932;-57
2022/10/07 05:05:03;;;;;;;;;;;;;;;8.77;84.34;102427.78;5022723;28;20735;-57
2022/10/07 05:07:28;;;;;;;;;;;;;;;8.74;84.41;102434.19;5027929;28;19975;-57
2022/10/07 05:09:53;;;;;;;;;;;;;;;8.73;84.46;102416.59;5027871;28;20408;-57
2022/10/07 05:12:18;;;;;;;;;;;;;;;8.74;84.11;102422.75;5028455;28;19925;-58
2022/10/07 05:14:44;;;;;;;;;;;;;;;8.71;84.43;102420.34;5020689;28;19927;-57
2022/10/07 05:17:09;;;;;;;;;;;;;;;8.69;84.69;102428.41;5025327;28;19917;-57
2022/10/07 05:19:35;;;;;;;;;;;;;;;8.67;84.42;102425.00;5021537;28;19963;-56
2022/10/07 05:22:00;;;;;;;;;;;;;;;8.65;84.61;102422.47;5022767;28;19925;-56
2022/10/07 05:24:25;;;;;;;;;;;;;;;8.64;84.35;102419.94;5021006;28;19968;-57
2022/10/07 05:26:50;;;;;;;;;;;;;;;8.64;84.65;102414.66;5022429;28;19924;-57
2022/10/07 05:29:16;;;;;;;;;;;;;;;8.62;84.66;102414.78;5023435;28;20000;-57
2022/10/07 05:31:41;;;;;;;;;;;;;;;8.60;84.61;102416.69;5029932;28;19917;-57
2022/10/07 05:34:06;;;;;;;;;;;;;;;8.58;84.80;102412.47;5027093;28;20422;-56
2022/10/07 05:36:32;;;;;;;;;;;;;;;8.57;84.87;102411.63;5026177;28;20004;-56
2022/10/07 05:38:57;;;;;;;;;;;;;;;8.55;84.60;102410.91;5027402;28;19921;-57
2022/10/07 05:41:22;;;;;;;;;;;;;;;8.55;85.02;102418.00;5021541;28;20393;-57
2022/10/07 05:43:47;;;;;;;;;;;;;;;8.51;84.97;102405.97;5024151;28;19928;-57
2022/10/07 05:46:14;;;;;;;;;;;;;;;8.47;85.07;102404.53;5025107;28;20388;-57
2022/10/07 05:48:39;;;;;;;;;;;;;;;8.45;85.39;102407.31;5026498;28;20406;-57
2022/10/07 05:51:05;;;;;;;;;;;;;;;8.45;85.47;102409.13;5027696;28;20043;-56
2022/10/07 05:53:30;;;;;;;;;;;;;;;8.44;85.31;102405.63;5021167;28;20008;-55
2022/10/07 05:55:55;;;;;;;;;;;;;;;8.44;85.38;102402.97;5024203;28;19927;-56
2022/10/07 05:58:21;;;;;;;;;;;;;;;8.45;85.39;102399.38;5025396;28;19963;-57
2022/10/07 06:00:49;;;;;;;;;;;;;;;8.46;85.44;102397.56;5027062;28;19917;-57
2022/10/07 06:03:14;;;;;;;;;;;;;;;8.46;85.32;102400.22;5022494;28;20594;-56
2022/10/07 06:05:40;;;;;;;;;;;;;;;8.46;85.13;102390.47;5022525;28;20672;-56
2022/10/07 06:08:05;;;;;;;;;;;;;;;8.46;85.55;102397.56;5026710;28;19928;-54
2022/10/07 06:13:16;;;;;;;;;;;;;;;8.41;85.50;102387.31;5027207;28;19924;-57
2022/10/07 06:15:41;;;;;;;;;;;;;;;8.42;85.61;102386.38;5027283;28;19921;-55
2022/10/07 06:18:06;;;;;;;;;;;;;;;8.42;85.69;102386.38;5031756;28;20058;-56
2022/10/07 06:20:31;;;;;;;;;;;;;;;8.40;86.00;102388.28;5026306;28;19917;-56
2022/10/07 06:22:57;;;;;;;;;;;;;;;8.41;85.82;102383.84;5023589;28;19996;-57
2022/10/07 06:25:22;;;;;;;;;;;;;;;8.41;85.72;102387.31;5024183;28;19960;-56
2022/10/07 06:27:47;;;;;;;;;;;;;;;8.42;86.04;102390.81;5023057;28;19925;-55
2022/10/07 06:30:12;;;;;;;;;;;;;;;8.41;85.86;102386.50;5019141;28;19921;-55
2022/10/07 06:32:38;;;;;;;;;;;;;;;8.40;86.24;102390.09;5019794;28;19917;-57
2022/10/07 06:35:03;;;;;;;;;;;;;;;8.38;86.03;102385.75;5031707;28;20020;-57
2022/10/07 06:37:29;;;;;;;;;;;;;;;8.40;86.53;102382.16;5027927;28;19924;-58
2022/10/07 06:39:55;;;;;;;;;;;;;;;8.39;86.57;102386.59;5026908;28;19921;-56
2022/10/07 06:42:20;;;;;;;;;;;;;;;8.40;86.51;102382.16;5027523;28;19928;-57
2022/10/07 06:44:45;;;;;;;;;;;;;;;8.40;86.41;102384.81;5017669;28;19924;-58
2022/10/07 06:47:11;;;;;;;;;;;;;;;8.42;86.63;102389.00;5026861;28;20418;-57
2022/10/07 06:49:37;;;;;;;;;;;;;;;8.44;86.77;102388.91;5024462;28;19917;-57
2022/10/07 06:52:02;;;;;;;;;;;;;;;8.46;86.65;102397.56;5024946;28;19936;-56
2022/10/07 06:54:27;;;;;;;;;;;;;;;8.49;86.76;102394.66;5031218;28;19917;-55
2022/10/07 06:56:53;;;;;;;;;;;;;;;8.52;86.58;102391.78;5027943;28;19924;-56
2022/10/07 06:59:18;;;;;;;;;;;;;;;8.54;87.00;102385.41;5028182;28;20072;-55
2022/10/07 07:01:43;;;;;;;;;;;;;;;8.58;87.02;102393.94;5023823;28;20471;-56
2022/10/07 07:04:08;;;;;;;;;;;;;;;8.61;86.83;102389.25;5022789;28;20656;-58
2022/10/07 07:06:37;;;;;;;;;;;;;;;8.65;87.21;102393.34;5026569;28;20066;-57
2022/10/07 07:09:04;;;;;;;;;;;;;;;8.69;87.08;102386.88;5024386;28;19927;-57
2022/10/07 07:11:35;;;;;;;;;;;;;;;8.73;87.49;102387.47;5022616;28;19921;-57
2022/10/07 07:14:04;;;;;;;;;;;;;;;8.78;87.29;102387.94;5025324;28;19928;-58
2022/10/07 07:16:30;;;;;;;;;;;;;;;8.83;87.13;102388.41;5022231;28;19921;-57
2022/10/07 07:18:56;;;;;;;;;;;;;;;8.89;86.87;102387.91;5024451;28;20572;-57
2022/10/07 07:21:22;;;;;;;;;;;;;;;8.95;87.34;102387.44;5021296;28;19939;-57
2022/10/07 07:23:47;;;;;;;;;;;;;;;9.04;87.38;102390.34;5024840;28;20420;-57
2022/10/07 07:26:12;;;;;;;;;;;;;;;9.12;87.16;102385.25;5023911;28;19929;-57
2022/10/07 07:28:38;;;;;;;;;;;;;;;9.20;87.05;102390.78;5021908;28;20322;-57
2022/10/07 07:31:09;;;;;;;;;;;;;;;9.26;86.77;102391.16;5024061;28;19924;-57
2022/10/07 07:33:37;;;;;;;;;;;;;;;9.35;86.49;102392.19;5025177;28;19924;-57
2022/10/07 07:36:07;;;;;;;;;;;;;;;9.43;86.69;102392.41;5024606;28;19953;-59
2022/10/07 07:38:32;;;;;;;;;;;;;;;9.50;86.84;102385.63;5025653;28;19917;-57
2022/10/07 07:41:02;;;;;;;;;;;;;;;9.58;86.38;102379.72;5023827;28;19932;-57
2022/10/07 07:43:28;;;;;;;;;;;;;;;9.67;86.23;102383.41;5024999;28;20041;-57
2022/10/07 07:45:56;;;;;;;;;;;;;;;9.77;86.44;102381.66;5026532;28;20412;-57
2022/10/07 07:48:21;;;;;;;;;;;;;;;9.90;85.74;102377.03;5031269;28;19977;-55
2022/10/07 07:50:46;;;;;;;;;;;;;;;10.00;85.77;102372.63;5024564;28;20414;-57
2022/10/07 07:53:12;;;;;;;;;;;;;;;10.10;85.30;102381.50;5027778;28;19927;-58
2022/10/07 07:55:37;;;;;;;;;;;;;;;10.18;85.00;102376.41;5022219;28;19932;-57
2022/10/07 07:58:02;;;;;;;;;;;;;;;10.27;84.78;102380.09;5023833;28;19935;-57
2022/10/07 08:00:27;;;;;;;;;;;;;;;10.33;84.31;102376.94;5021580;28;19921;-57
2022/10/07 08:02:52;;;;;;;;;;;;;;;10.39;84.29;102371.09;5035848;28;19916;-58
2022/10/07 08:05:19;;;;;;;;;;;;;;;10.46;83.82;102368.75;5020273;28;20602;-57
2022/10/07 08:07:44;;;;;;;;;;;;;;;10.54;83.80;102374.25;5019149;28;19921;-57
2022/10/07 08:10:09;;;;;;;;;;;;;;;10.63;83.99;102370.78;5023064;28;19917;-55
2022/10/07 08:12:34;;;;;;;;;;;;;;;10.73;83.99;102370.84;5027336;28;19952;-56
2022/10/07 08:14:59;;;;;;;;;;;;;;;10.83;83.46;102366.41;5037253;28;19932;-56
2022/10/07 08:17:25;;;;;;;;;;;;;;;10.94;83.30;102365.44;5026114;28;20478;-57
2022/10/07 08:19:50;;;;;;;;;;;;;;;11.04;83.35;102367.16;5024564;28;19957;-57
2022/10/07 08:22:16;;;;;;;;;;;;;;;11.13;83.06;102358.34;5029610;28;19917;-58
2022/10/07 08:24:41;;;;;;;;;;;;;;;11.26;82.77;102367.88;5018587;28;19927;-56
2022/10/07 08:27:07;;;;;;;;;;;;;;;11.35;82.59;102362.59;5025792;28;19920;-57
2022/10/07 08:29:32;;;;;;;;;;;;;;;11.45;82.18;102359.94;5032590;28;19947;-58
2022/10/07 08:31:57;;;;;;;;;;;;;;;11.54;82.10;102364.41;5024880;28;19972;-55
2022/10/07 08:34:22;;;;;;;;;;;;;;;11.61;81.41;102367.38;5023971;28;19921;-57
2022/10/07 08:36:49;;;;;;;;;;;;;;;11.70;80.84;102358.56;5019915;28;19921;-58
2022/10/07 08:39:14;;;;;;;;;;;;;;;11.77;80.94;102359.66;5027249;28;19970;-57
2022/10/07 08:41:42;;;;;;;;;;;;;;;11.83;80.65;102359.13;5006669;28;19921;-56
2022/10/07 08:44:16;;;;;;;;;;;;;;;11.91;80.66;102353.94;5022088;28;19929;-57
2022/10/07 08:47:01;;;;;;;;;;;;;;;11.99;80.21;102350.56;5024819;28;19925;-57
2022/10/07 08:49:55;;;;;;;;;;;;;;;12.05;80.12;102350.81;5019661;28;19925;-57
2022/10/07 08:52:27;;;;;;;;;;;;;;;12.09;79.27;102343.38;5008633;28;19933;-58
2022/10/07 08:54:52;;;;;;;;;;;;;;;12.12;78.56;102339.59;5022479;28;19929;-57
2022/10/07 08:57:24;;;;;;;;;;;;;;;12.19;78.59;102338.91;5026145;28;19921;-57
2022/10/07 08:59:56;;;;;;;;;;;;;;;12.30;78.61;102335.22;5020631;28;19987;-56
2022/10/07 09:02:38;;;;;;;;;;;;;;;12.43;78.27;102330.38;5020706;28;19921;-57
2022/10/07 09:05:14;;;;;;;;;;;;;;;12.58;78.08;102333.44;5023421;28;19940;-57
2022/10/07 09:07:46;;;;;;;;;;;;;;;12.72;77.55;102322.25;5026250;28;19920;-56
2022/10/07 09:10:17;;;;;;;;;;;;;;;12.83;76.74;102321.25;5020972;28;19925;-57
2022/10/07 09:12:47;;;;;;;;;;;;;;;12.90;75.90;102328.47;5034039;28;20015;-56
2022/10/07 09:15:36;;;;;;;;;;;;;;;13.00;75.53;102323.91;5027994;28;19931;-58
2022/10/07 09:18:04;;;;;;;;;;;;;;;13.15;75.71;102323.41;5027136;28;19917;-58
2022/10/07 09:20:34;;;;;;;;;;;;;;;13.30;74.92;102330.78;5025891;28;20392;-56
2022/10/07 09:23:01;;;;;;;;;;;;;;;13.38;74.39;102323.84;5033681;28;20418;-57
2022/10/07 09:25:28;;;;;;;;;;;;;;;13.50;73.93;102312.78;5037486;28;20023;-57
2022/10/07 09:27:53;;;;;;;;;;;;;;;13.59;73.61;102308.38;5027302;28;19925;-57
2022/10/07 09:30:20;;;;;;;;;;;;;;;13.73;73.88;102310.47;5026781;28;19925;-56
2022/10/07 09:32:47;;;;;;;;;;;;;;;13.88;73.46;102308.94;5028308;28;19925;-57
2022/10/07 09:35:17;;;;;;;;;;;;;;;13.99;72.60;102310.50;5033784;28;19921;-58
2022/10/07 09:37:53;;;;;;;;;;;;;;;14.08;72.77;102308.69;5027015;28;21711;-58
2022/10/07 09:40:30;;;;;;;;;;;;;;;14.20;72.45;102296.78;5024907;28;19925;-58
2022/10/07 09:42:56;;;;;;;;;;;;;;;14.27;71.55;102300.47;5030797;28;19917;-57
2022/10/07 09:45:32;;;;;;;;;;;;;;;14.35;71.67;102295.16;5026897;28;19921;-59
2022/10/07 09:48:03;;;;;;;;;;;;;;;14.34;70.67;102290.81;5026319;28;19924;-57
2022/10/07 09:50:28;;;;;;;;;;;;;;;14.28;70.48;102288.78;5022897;28;19963;-57
2022/10/07 09:52:54;;;;;;;;;;;;;;;14.32;70.67;102281.28;5038499;28;19975;-58
2022/10/07 09:55:33;;;;;;;;;;;;;;;14.36;70.73;102287.97;5032458;28;20317;-57
2022/10/07 09:58:00;;;;;;;;;;;;;;;14.42;70.74;102280.16;5029166;28;19931;-58
2022/10/07 10:00:26;;;;;;;;;;;;;;;14.48;70.36;102273.38;5026351;28;19913;-58
2022/10/07 10:02:53;;;;;;;;;;;;;;;14.51;70.05;102273.06;5027728;28;20413;-55
2022/10/07 10:05:24;;;;;;;;;;;;;;;14.54;70.03;102270.06;5029693;28;20709;-58
2022/10/07 10:07:52;;;;;;;;;;;;;;;14.53;69.49;102271.91;5031092;28;19920;-56
2022/10/07 10:10:21;;;;;;;;;;;;;;;14.55;69.57;102272.56;5027450;28;19964;-58
2022/10/07 10:12:50;;;;;;;;;;;;;;;14.61;69.94;102259.56;5025809;28;20292;-58
2022/10/07 10:15:23;;;;;;;;;;;;;;;14.73;69.63;102255.56;5022533;28;19987;-57
2022/10/07 10:17:48;;;;;;;;;;;;;;;14.78;69.02;102255.94;5024075;28;19936;-58
2022/10/07 10:20:20;;;;;;;;;;;;;;;14.87;69.13;102262.97;5019659;28;19917;-58
2022/10/07 10:22:45;;;;;;;;;;;;;;;14.88;67.92;102251.25;5022942;28;19917;-57
2022/10/07 10:28:34;;;;;;;;;;;;;;;14.89;67.58;102244.91;4964281;28;20054;-57
2022/10/07 10:31:05;;;;;;;;;;;;;;;14.94;67.72;102244.41;4955155;28;19918;-59
2022/10/07 10:34:00;;;;;;;;;;;;;;;14.99;67.66;102242.06;5000896;28;19944;-58
2022/10/07 10:36:27;;;;;;;;;;;;;;;15.11;67.51;102233.59;4950713;28;19923;-59
2022/10/07 10:39:01;;;;;;;;;;;;;;;15.17;66.99;102230.22;5026901;28;19975;-57
2022/10/07 10:41:26;;;;;;;;;;;;;;;15.26;67.14;102227.56;5025845;28;20348;-58
2022/10/07 10:44:03;;;;;;;;;;;;;;;15.33;66.24;102226.75;5029873;28;20392;-58
2022/10/07 10:46:47;;;;;;;;;;;;;;;15.37;65.78;102230.75;5025912;28;21755;-58
2022/10/07 10:49:24;;;;;;;;;;;;;;;15.43;65.09;102227.38;5029184;28;19925;-58
2022/10/07 10:52:01;;;;;;;;;;;;;;;15.48;64.32;102224.19;5031438;28;19921;-57
2022/10/07 10:54:34;;;;;;;;;;;;;;;15.50;63.97;102216.84;5027786;28;19925;-57
2022/10/07 10:57:05;;;;;;;;;;;;;;;15.61;64.42;102205.81;5025894;28;19932;-58
2022/10/07 10:59:33;;;;;;;;;;;;;;;15.74;63.80;102206.13;5023677;28;19920;-57
2022/10/07 11:02:17;;;;;;;;;;;;;;;15.83;63.24;102206.94;5027501;28;19940;-58
2022/10/07 11:04:44;;;;;;;;;;;;;;;15.91;63.27;102193.53;5030562;28;20367;-57
2022/10/07 11:07:29;;;;;;;;;;;;;;;15.96;62.18;102196.53;5027164;28;20501;-58
2022/10/07 11:09:58;;;;;;;;;;;;;;;15.97;62.12;102187.47;5022850;28;19925;-57
2022/10/07 11:12:39;;;;;;;;;;;;;;;16.01;61.25;102193.31;5030003;28;19917;-57
2022/10/07 11:15:14;;;;;;;;;;;;;;;15.98;61.10;102191.81;5030440;28;20479;-58
2022/10/07 11:17:40;;;;;;;;;;;;;;;16.00;61.48;102192.47;5026729;28;20483;-58
2022/10/07 11:20:07;;;;;;;;;;;;;;;16.15;61.45;102184.53;5019909;28;19937;-58
2022/10/07 11:22:38;;;;;;;;;;;;;;;16.24;61.16;102172.78;5021434;28;19918;-58
2022/10/07 11:25:10;;;;;;;;;;;;;;;16.30;60.13;102176.59;5024049;28;19925;-58
2022/10/07 11:27:35;;;;;;;;;;;;;;;16.28;60.09;102162.53;5016213;28;20015;-58
2022/10/07 11:30:21;;;;;;;;;;;;;;;16.33;60.53;102155.63;5016584;28;20551;-58
2022/10/07 11:32:54;;;;;;;;;;;;;;;16.45;60.82;102148.00;5020461;28;19925;-58
2022/10/07 11:35:22;;;;;;;;;;;;;;;16.60;60.03;102146.25;5018695;28;19921;-59
2022/10/07 11:37:51;;;;;;;;;;;;;;;16.63;59.32;102142.38;5024198;28;19971;-57
2022/10/07 11:40:17;;;;;;;;;;;;;;;16.67;59.31;102131.13;5034119;28;19913;-58
2022/10/07 11:42:45;;;;;;;;;;;;;;;16.72;59.11;102118.03;5026943;28;20024;-58
2022/10/07 11:45:15;;;;;;;;;;;;;;;16.71;58.99;102126.25;5026915;28;19913;-58
2022/10/07 11:47:42;;;;;;;;;;;;;;;16.68;58.94;102115.88;5026013;28;20343;-58
2022/10/07 11:50:08;;;;;;;;;;;;;;;16.76;59.31;102113.13;5027767;28;20241;-58
2022/10/07 11:52:38;;;;;;;;;;;;;;;16.82;58.55;102112.44;5027138;28;19920;-57
2022/10/07 11:55:17;;;;;;;;;;;;;;;16.88;58.16;102109.00;5027816;28;19936;-57
2022/10/07 11:57:48;;;;;;;;;;;;;;;16.88;57.76;102100.97;5024124;28;19913;-58
2022/10/07 12:00:33;;;;;;;;;;;;;;;16.92;57.63;102091.53;5027964;28;19948;-58
2022/10/07 12:03:16;;;;;;;;;;;;;;;16.97;57.01;102094.50;5029313;28;19923;-58
2022/10/07 12:05:47;;;;;;;;;;;;;;;17.08;57.06;102090.56;5025367;28;19941;-59
2022/10/07 12:08:27;;;;;;;;;;;;;;;17.15;57.12;102080.75;5029464;28;19924;-59
2022/10/07 12:10:54;;;;;;;;;;;;;;;17.25;57.05;102073.25;5024755;28;19924;-59
2022/10/07 12:13:22;;;;;;;;;;;;;;;17.34;56.90;102066.75;5028249;28;19924;-59
2022/10/07 12:15:48;;;;;;;;;;;;;;;17.36;56.00;102065.78;5026711;28;19921;-59
2022/10/07 12:18:16;;;;;;;;;;;;;;;17.32;55.89;102059.91;5025213;28;20327;-58
2022/10/07 12:20:43;;;;;;;;;;;;;;;17.45;56.05;102056.59;5024220;28;19925;-59
2022/10/07 12:23:21;;;;;;;;;;;;;;;17.54;56.66;102042.03;5028617;28;19920;-59
2022/10/07 12:25:50;;;;;;;;;;;;;;;17.61;55.97;102049.16;5028130;28;19929;-59
2022/10/07 12:28:22;;;;;;;;;;;;;;;17.48;55.38;102049.00;5024364;28;20017;-58
2022/10/07 12:30:51;;;;;;;;;;;;;;;17.40;55.72;102041.03;5022588;28;19921;-58
2022/10/07 12:33:26;;;;;;;;;;;;;;;17.42;55.78;102032.81;5021483;28;19928;-58
2022/10/07 12:35:52;;;;;;;;;;;;;;;17.46;55.91;102032.25;5021966;28;20376;-58
2022/10/07 12:38:24;;;;;;;;;;;;;;;17.51;56.19;102026.28;5019712;28;19966;-58
2022/10/07 12:40:53;;;;;;;;;;;;;;;17.64;56.12;102019.25;5023781;28;19917;-57
2022/10/07 12:43:18;;;;;;;;;;;;;;;17.78;56.12;102014.88;5022234;28;19925;-57
2022/10/07 12:45:43;;;;;;;;;;;;;;;17.83;56.10;102009.78;5019008;28;20040;-58
2022/10/07 12:48:13;;;;;;;;;;;;;;;17.84;55.30;102021.34;5018747;28;19932;-57
2022/10/07 12:50:39;;;;;;;;;;;;;;;17.76;54.97;102016.09;5021243;28;20368;-58
2022/10/07 12:53:06;;;;;;;;;;;;;;;17.72;55.21;101999.53;5021379;28;19956;-58
2022/10/07 12:55:36;;;;;;;;;;;;;;;17.77;55.32;101998.97;5021783;28;20487;-57
2022/10/07 13:00:59;;;;;;;;;;;;;;;17.84;54.84;101995.31;5022827;28;20396;-58